Date,TemperatureHighF,TemperatureAvgF,TemperatureLowF,DewpointHighF,DewpointAvgF,DewpointLowF,HumidityHigh,HumidityAvg,HumidityLow,PressureMaxIn,PressureMinIn,WindSpeedMaxMPH,WindSpeedAvgMPH,GustSpeedMaxMPH,PrecipitationSumIn
2013-5-1,60.6,51.5,41.9,49.0,42.3,36.5,85,71,47,30.32,30.21,13,5,13,0.00
2013-5-2,63.5,53.1,40.1,49.2,43.8,36.8,93,72,53,30.30,30.14,14,4,14,0.00
2013-5-3,62.2,55.7,50.4,52.3,47.3,44.8,91,74,61,30.14,29.85,22,9,22,0.06
2013-5-4,61.7,53.9,46.8,50.9,45.1,42.8,91,74,53,30.03,29.78,21,9,21,0.03
2013-5-5,66.0,59.0,53.1,53.6,50.3,46.4,87,74,58,30.13,30.01,18,8,18,0.00
2013-5-6,64.4,57.3,51.3,53.8,49.8,46.6,89,76,67,30.26,30.04,13,4,13,0.03
2013-5-7,61.7,57.1,53.4,51.0,48.2,46.4,81,72,66,30.18,29.73,10,4,10,0.00
2013-5-8,64.2,54.0,48.2,54.8,48.6,39.8,97,83,61,29.70,29.31,21,9,21,0.30
2013-5-9,57.7,50.2,46.8,50.4,44.5,38.9,88,81,69,29.54,29.18,31,12,31,0.17
2013-5-10,59.9,52.2,46.2,53.0,44.8,38.4,95,77,49,29.79,29.54,22,9,22,0.11
2013-5-11,55.2,49.6,45.3,47.8,42.9,39.2,93,78,60,29.94,29.65,26,10,26,0.14
2013-5-12,59.2,51.2,43.7,53.3,46.3,39.0,92,83,75,29.95,29.81,25,8,25,0.06
2013-5-13,53.4,48.4,43.3,44.4,40.4,37.4,85,74,61,29.83,29.69,22,11,22,0.06
2013-5-14,58.3,49.1,41.4,44.7,40.9,37.4,91,75,52,29.69,29.39,14,6,14,0.22
2013-5-15,55.2,48.1,42.1,44.3,41.2,37.6,91,78,59,29.56,29.38,24,9,24,0.03
2013-5-16,52.3,46.6,38.7,46.8,41.2,35.1,90,81,73,29.79,29.43,11,3,11,0.06
2013-5-17,56.7,49.8,40.1,48.8,42.8,37.4,92,78,61,29.97,29.61,12,4,12,0.00
2013-5-18,55.4,52.0,50.0,49.1,47.5,39.5,93,85,65,30.10,29.73,15,6,15,0.03
2013-5-19,61.5,54.8,49.1,53.0,48.3,45.5,93,80,63,30.12,29.77,12,2,12,0.00
2013-5-20,61.3,56.0,52.0,54.1,50.5,46.8,86,82,78,30.15,30.05,16,8,16,0.00
2013-5-21,64.9,59.9,51.3,51.6,49.7,46.3,83,70,61,30.24,29.30,15,8,15,0.00
2013-5-22,58.5,53.2,48.0,49.8,43.0,37.1,89,70,52,30.30,30.19,18,9,18,0.00
2013-5-23,52.9,48.2,42.4,42.4,38.3,34.6,82,69,51,30.19,29.91,24,10,24,0.00
2013-5-24,58.1,50.5,43.5,42.0,39.2,36.5,80,66,50,30.25,29.98,21,9,21,0.00
2013-5-25,59.9,53.3,42.3,48.0,44.0,37.8,86,71,60,30.29,30.18,12,4,12,0.00
2013-5-26,66.7,57.6,51.6,53.0,49.1,45.3,90,74,55,30.22,29.62,17,6,17,0.00
2013-5-27,59.7,53.2,49.5,50.3,47.6,44.0,93,82,62,29.82,29.44,16,6,16,0.28
2013-5-28,59.2,52.4,44.2,49.8,45.8,40.9,91,78,67,29.72,29.48,14,4,14,0.08
2013-5-29,67.1,57.5,48.2,54.4,49.7,45.8,95,76,58,30.04,29.68,16,8,16,0.33
2013-5-30,68.5,60.4,50.4,50.4,47.8,44.4,81,64,50,30.20,29.98,22,8,22,0.00
2013-5-31,62.4,56.7,49.6,54.4,48.2,40.8,85,74,62,30.29,30.15,15,6,15,0.00